Igor I Sikorsky Memorial Airport
KBDR : rendu visible

Aérodrome :











RETROUVEZ-NOUS SUR...

 
LOGIN :

S'inscrire | Disclaimer

   EN    FR    IT 

 









Légende :    VFR   VFR Marginal   IFR   IFR Intensif   IFR Très Intensif
Visi : 
Plafond : 
>= 8 km
>= 3000ft
5 à 8 km
1000 à 3000 ft
1500m à 5 km
500 à 1000 ft
800 à 1500m
200 à 500 ft
< 800m
< 200 ft
Symboles :   Orages  Brouillard  Fortes neiges  Fortes précipitations  Vent > 20 kt






- Altitude de l'aérodrome : 9 ft
- Code IATA : BDR


KBDR - Igor I Sikorsky Memorial

DERNIER METAR :
  • 261542Z 15006KT 10SM FEW009 SCT013 18/15 A3024 RMK AO2 T01830150

METARs EXPIRÉS :
  • 261452Z 16006KT 10SM OVC010 19/16 A3023 RMK AO2 SLP237 T01890156 51002
  • 261417Z 14004KT 10SM BKN011 OVC014 18/16 A3024 RMK AO2 CIG 006V013 T01830156
  • 261352Z 00000KT 10SM OVC006 17/16 A3023 RMK AO2 CIG 005V011 SLP237 T01720156
  • 261332Z 00000KT 10SM OVC007 17/15 A3023 RMK AO2 CIG 004V009 T01720150
  • 261301Z 21003KT 3SM BR OVC003 16/14 A3023 RMK AO2 T01560144

TAF KBDR
Valide du 26 à 15h jusqu'au 27 à 12h UTC


261436Z 2615/2712 17004KT P6SM BKN015
FM261600 15007KT P6SM SCT015
FM270100 18003KT 3SM BR SCT004 BKN010
FM270300 18003KT 2SM BR OVC004
FIR KZBW / Amérique du Nord



MET'MAP, la Météo Aéronautique d'un coup d'oeil ! - Copyright ORBIFLY Décembre 2007 - Disclaimer

ORBIFLY MET'MAP TEAM :

Programmation & Développement : Alexandra Zaïnal
Sur une idée originale de : Baudouin d'Aumeries
Assistance à la programmation : Marc-Olivier Méhu
Soutien technique & logistique : Manuel Goepfert

Contact : metmap@orbifly.com




SOURCES & CREDITS :

   NOAA       Earth
Advisory